Strona główna
METAR-TAF:

METAR-TAF

Lotnisko :

Port lotniczy Pittsburgh

Pittsburgh, Pensylwania, Stany Zjednoczone

Szerokość geograficzna: 40-30-14N, Długość geograficzna: 080-15-59W, wysokość: 366 m

Aktualna obserwacja pogody

Raport powstał 1 godzina i 7 minut temu, godzina 05:51 UTC
Wiatr 4 kt od zachodnio-północny zachód
Temperatura -7°C
Wilgotność 67%
Ciśnienie 1035 hPa
Widzialność: 16.1 km
Mało chmury na wysokości 3000 ft

METAR: KPIT 120551Z 30004KT 10SM FEW030 M07/M12 A3056 RMK AO2 SLP376 60000 T10671117 11022 21072 51012

czas: 01:58 (06:58 UTC)

Prognoza

Raport powstał 1 godzina i 38 minut temu, godzina 05:20 UTC
Prognoza ważna od 12 godzina 06 UTC do 13 godzina 12 UTC
Wiatr 3 kt z kierunków zmiennych
Widzialność: 10 km
bezchmurnie
Od 12 godzina 1500 UTC
Wiatr 5 kt od południowo-południowy wschód
Widzialność: 10 km
Przerywane chmury na wysokości 25000 ft

TAF: KPIT 120520Z 1206/1312 VRB03KT P6SM SKC FM121500 15005KT P6SM BKN250

Obserwacja i prognoza pogody dla ponad 4000 lotnisk (raport METAR i TAF).

Dostępne stacje oznaczono żółtymi i czerwonymi punktami na mapie.

Najedź kursorem aby zobaczyć nazwę stacji.

Kliknij aby zobaczyć obserwacje i prognozy pogody.

Aby zmienić mapę: kliknij na zielony przycisk z czarnym krzyżykiem, aby powiększyć; na zielony przycisk z myślnikiem, aby pomniejszyć; na zielone strzałki, aby przejść do map sąsiednich.


METAR-TAF: